sensor_id;sensor_type;location;lat;lon;timestamp;temperature;humidity
3268;DHT22;1646;52.450;13.326;2022-08-01T00:01:32;23.40;99.90
3268;DHT22;1646;52.450;13.326;2022-08-01T00:06:30;23.20;99.90
3268;DHT22;1646;52.450;13.326;2022-08-01T00:11:28;23.30;99.90
3268;DHT22;1646;52.450;13.326;2022-08-01T00:16:26;23.20;99.90
3268;DHT22;1646;52.450;13.326;2022-08-01T00:21:26;23.20;99.90
3268;DHT22;1646;52.450;13.326;2022-08-01T00:26:24;23.20;99.90
3268;DHT22;1646;52.450;13.326;2022-08-01T00:31:22;23.20;99.90
3268;DHT22;1646;52.450;13.326;2022-08-01T00:36:20;23.10;99.90
3268;DHT22;1646;52.450;13.326;2022-08-01T00:41:19;23.10;99.90
3268;DHT22;1646;52.450;13.326;2022-08-01T00:46:17;23.10;99.90
3268;DHT22;1646;52.450;13.326;2022-08-01T00:51:16;23.10;99.90
3268;DHT22;1646;52.450;13.326;2022-08-01T00:56:14;23.10;99.90
3268;DHT22;1646;52.450;13.326;2022-08-01T01:01:14;23.20;99.90
3268;DHT22;1646;52.450;13.326;2022-08-01T01:06:20;23.10;99.90
3268;DHT22;1646;52.450;13.326;2022-08-01T01:11:26;23.00;99.90
3268;DHT22;1646;52.450;13.326;2022-08-01T01:16:29;22.90;99.90
3268;DHT22;1646;52.450;13.326;2022-08-01T01:21:53;22.80;99.90
3268;DHT22;1646;52.450;13.326;2022-08-01T01:27:01;22.70;99.90
3268;DHT22;1646;52.450;13.326;2022-08-01T01:32:06;22.70;99.90
3268;DHT22;1646;52.450;13.326;2022-08-01T01:37:07;22.70;99.90
3268;DHT22;1646;52.450;13.326;2022-08-01T01:42:07;22.50;99.90
3268;DHT22;1646;52.450;13.326;2022-08-01T01:47:11;22.40;99.90
3268;DHT22;1646;52.450;13.326;2022-08-01T01:52:12;22.30;99.90
3268;DHT22;1646;52.450;13.326;2022-08-01T01:57:12;22.20;99.90
3268;DHT22;1646;52.450;13.326;2022-08-01T02:02:12;22.10;99.90
3268;DHT22;1646;52.450;13.326;2022-08-01T02:07:17;22.10;99.90
3268;DHT22;1646;52.450;13.326;2022-08-01T02:12:17;22.10;99.90
3268;DHT22;1646;52.450;13.326;2022-08-01T02:17:20;22.00;99.90
3268;DHT22;1646;52.450;13.326;2022-08-01T02:22:23;22.00;99.90
3268;DHT22;1646;52.450;13.326;2022-08-01T02:27:28;21.70;99.90
3268;DHT22;1646;52.450;13.326;2022-08-01T02:32:31;21.60;99.90
3268;DHT22;1646;52.450;13.326;2022-08-01T02:37:34;21.60;99.90
3268;DHT22;1646;52.450;13.326;2022-08-01T02:42:42;21.50;99.90
3268;DHT22;1646;52.450;13.326;2022-08-01T02:47:44;21.50;99.90
3268;DHT22;1646;52.450;13.326;2022-08-01T02:52:44;21.50;99.90
3268;DHT22;1646;52.450;13.326;2022-08-01T02:57:46;21.50;99.90
3268;DHT22;1646;52.450;13.326;2022-08-01T03:02:51;21.50;99.90
3268;DHT22;1646;52.450;13.326;2022-08-01T03:07:52;21.60;99.90
3268;DHT22;1646;52.450;13.326;2022-08-01T03:13:00;21.60;99.90
3268;DHT22;1646;52.450;13.326;2022-08-01T03:18:02;21.50;99.90
3268;DHT22;1646;52.450;13.326;2022-08-01T03:23:04;21.40;99.90
3268;DHT22;1646;52.450;13.326;2022-08-01T03:28:04;21.30;99.90
3268;DHT22;1646;52.450;13.326;2022-08-01T03:33:06;21.40;99.90
3268;DHT22;1646;52.450;13.326;2022-08-01T03:38:05;21.50;99.90
3268;DHT22;1646;52.450;13.326;2022-08-01T03:43:17;21.60;99.90
3268;DHT22;1646;52.450;13.326;2022-08-01T03:48:18;21.50;99.90
3268;DHT22;1646;52.450;13.326;2022-08-01T03:53:20;21.60;99.90
3268;DHT22;1646;52.450;13.326;2022-08-01T03:58:20;21.60;99.90
3268;DHT22;1646;52.450;13.326;2022-08-01T04:03:20;21.50;99.90
3268;DHT22;1646;52.450;13.326;2022-08-01T04:08:19;21.50;99.90
3268;DHT22;1646;52.450;13.326;2022-08-01T04:13:25;21.30;99.90
3268;DHT22;1646;52.450;13.326;2022-08-01T04:18:34;21.20;99.90
3268;DHT22;1646;52.450;13.326;2022-08-01T04:23:35;21.20;99.90
3268;DHT22;1646;52.450;13.326;2022-08-01T04:28:35;21.10;99.90
3268;DHT22;1646;52.450;13.326;2022-08-01T04:33:35;21.00;99.90
3268;DHT22;1646;52.450;13.326;2022-08-01T04:38:36;21.10;99.90
3268;DHT22;1646;52.450;13.326;2022-08-01T04:43:34;21.10;99.90
3268;DHT22;1646;52.450;13.326;2022-08-01T04:48:36;21.00;99.90
3268;DHT22;1646;52.450;13.326;2022-08-01T04:53:35;21.00;99.90
3268;DHT22;1646;52.450;13.326;2022-08-01T04:58:33;21.00;99.90
3268;DHT22;1646;52.450;13.326;2022-08-01T05:03:31;21.00;99.90
3268;DHT22;1646;52.450;13.326;2022-08-01T05:08:36;21.00;99.90
3268;DHT22;1646;52.450;13.326;2022-08-01T05:13:34;21.20;99.90
3268;DHT22;1646;52.450;13.326;2022-08-01T05:18:32;21.20;99.90
3268;DHT22;1646;52.450;13.326;2022-08-01T05:23:30;21.20;99.90
3268;DHT22;1646;52.450;13.326;2022-08-01T05:28:40;21.30;99.90
3268;DHT22;1646;52.450;13.326;2022-08-01T05:33:38;21.30;99.90
3268;DHT22;1646;52.450;13.326;2022-08-01T05:38:36;21.30;99.90
3268;DHT22;1646;52.450;13.326;2022-08-01T05:43:34;21.60;99.90
3268;DHT22;1646;52.450;13.326;2022-08-01T05:48:34;21.90;99.90
3268;DHT22;1646;52.450;13.326;2022-08-01T05:53:32;22.00;99.90
3268;DHT22;1646;52.450;13.326;2022-08-01T05:58:31;21.80;99.90
3268;DHT22;1646;52.450;13.326;2022-08-01T06:03:29;21.80;99.90
3268;DHT22;1646;52.450;13.326;2022-08-01T06:08:31;21.90;99.90
3268;DHT22;1646;52.450;13.326;2022-08-01T06:13:29;22.00;99.90
3268;DHT22;1646;52.450;13.326;2022-08-01T06:18:40;21.90;99.90
3268;DHT22;1646;52.450;13.326;2022-08-01T06:23:39;21.80;99.90
3268;DHT22;1646;52.450;13.326;2022-08-01T06:28:38;21.80;99.90
3268;DHT22;1646;52.450;13.326;2022-08-01T06:33:37;21.80;99.90
3268;DHT22;1646;52.450;13.326;2022-08-01T06:38:35;21.70;99.90
3268;DHT22;1646;52.450;13.326;2022-08-01T06:43:34;21.60;99.90
3268;DHT22;1646;52.450;13.326;2022-08-01T06:48:32;21.60;99.90
3268;DHT22;1646;52.450;13.326;2022-08-01T06:53:32;21.90;99.90
3268;DHT22;1646;52.450;13.326;2022-08-01T06:58:33;22.10;99.90
3268;DHT22;1646;52.450;13.326;2022-08-01T07:03:32;22.20;99.90
3268;DHT22;1646;52.450;13.326;2022-08-01T07:08:50;22.00;99.90
3268;DHT22;1646;52.450;13.326;2022-08-01T07:13:49;21.90;99.90
3268;DHT22;1646;52.450;13.326;2022-08-01T07:18:47;22.10;99.90
3268;DHT22;1646;52.450;13.326;2022-08-01T07:23:45;22.40;99.90
3268;DHT22;1646;52.450;13.326;2022-08-01T07:28:43;22.20;99.90
3268;DHT22;1646;52.450;13.326;2022-08-01T07:33:43;21.90;99.90
3268;DHT22;1646;52.450;13.326;2022-08-01T07:38:44;22.00;99.90
3268;DHT22;1646;52.450;13.326;2022-08-01T07:43:42;22.40;99.90
3268;DHT22;1646;52.450;13.326;2022-08-01T07:48:54;22.80;99.90
3268;DHT22;1646;52.450;13.326;2022-08-01T07:53:52;22.90;99.90
3268;DHT22;1646;52.450;13.326;2022-08-01T07:58:50;22.70;99.90
3268;DHT22;1646;52.450;13.326;2022-08-01T08:03:48;22.70;99.90
3268;DHT22;1646;52.450;13.326;2022-08-01T08:08:47;22.70;99.90
3268;DHT22;1646;52.450;13.326;2022-08-01T08:13:45;22.60;99.90
3268;DHT22;1646;52.450;13.326;2022-08-01T08:18:43;22.40;99.90
3268;DHT22;1646;52.450;13.326;2022-08-01T08:23:41;22.30;99.90
3268;DHT22;1646;52.450;13.326;2022-08-01T08:28:58;22.40;99.90
3268;DHT22;1646;52.450;13.326;2022-08-01T08:33:56;22.40;99.90
3268;DHT22;1646;52.450;13.326;2022-08-01T08:38:54;22.60;99.90
3268;DHT22;1646;52.450;13.326;2022-08-01T08:43:52;23.20;99.90
3268;DHT22;1646;52.450;13.326;2022-08-01T08:48:52;24.00;99.90
3268;DHT22;1646;52.450;13.326;2022-08-01T08:53:51;24.40;99.90
3268;DHT22;1646;52.450;13.326;2022-08-01T08:58:52;24.20;99.90
3268;DHT22;1646;52.450;13.326;2022-08-01T09:03:51;24.00;99.90
3268;DHT22;1646;52.450;13.326;2022-08-01T09:08:50;23.80;99.90
3268;DHT22;1646;52.450;13.326;2022-08-01T09:14:05;23.60;99.90
3268;DHT22;1646;52.450;13.326;2022-08-01T09:19:11;23.20;99.90
3268;DHT22;1646;52.450;13.326;2022-08-01T09:24:15;23.10;99.90
3268;DHT22;1646;52.450;13.326;2022-08-01T09:29:28;23.00;99.90
3268;DHT22;1646;52.450;13.326;2022-08-01T09:34:35;23.00;99.90
3268;DHT22;1646;52.450;13.326;2022-08-01T09:39:34;22.90;99.90
3268;DHT22;1646;52.450;13.326;2022-08-01T09:44:39;23.20;99.90
3268;DHT22;1646;52.450;13.326;2022-08-01T09:49:40;23.60;99.90
3268;DHT22;1646;52.450;13.326;2022-08-01T09:54:52;23.80;99.90
3268;DHT22;1646;52.450;13.326;2022-08-01T09:59:53;23.50;99.90
3268;DHT22;1646;52.450;13.326;2022-08-01T10:04:57;23.30;99.90
3268;DHT22;1646;52.450;13.326;2022-08-01T10:10:11;23.00;99.90
3268;DHT22;1646;52.450;13.326;2022-08-01T10:15:10;22.90;99.90
3268;DHT22;1646;52.450;13.326;2022-08-01T10:20:12;22.90;99.90
3268;DHT22;1646;52.450;13.326;2022-08-01T10:25:27;22.90;99.90
3268;DHT22;1646;52.450;13.326;2022-08-01T10:30:41;22.90;99.90
3268;DHT22;1646;52.450;13.326;2022-08-01T10:35:41;22.90;99.90
3268;DHT22;1646;52.450;13.326;2022-08-01T10:40:44;22.90;99.90
3268;DHT22;1646;52.450;13.326;2022-08-01T10:45:42;23.10;99.90
3268;DHT22;1646;52.450;13.326;2022-08-01T10:50:45;23.50;99.90
3268;DHT22;1646;52.450;13.326;2022-08-01T10:55:50;23.80;99.90
3268;DHT22;1646;52.450;13.326;2022-08-01T11:01:14;23.70;99.90
3268;DHT22;1646;52.450;13.326;2022-08-01T11:06:17;23.70;99.90
3268;DHT22;1646;52.450;13.326;2022-08-01T11:11:19;23.90;99.90
3268;DHT22;1646;52.450;13.326;2022-08-01T11:16:26;23.80;99.90
3268;DHT22;1646;52.450;13.326;2022-08-01T11:21:58;23.70;99.90
3268;DHT22;1646;52.450;13.326;2022-08-01T11:27:15;23.80;99.90
3268;DHT22;1646;52.450;13.326;2022-08-01T11:32:23;23.70;99.90
3268;DHT22;1646;52.450;13.326;2022-08-01T11:37:27;23.40;99.90
3268;DHT22;1646;52.450;13.326;2022-08-01T11:42:27;23.30;99.90
3268;DHT22;1646;52.450;13.326;2022-08-01T11:47:45;23.10;99.90
3268;DHT22;1646;52.450;13.326;2022-08-01T11:52:47;23.10;99.90
3268;DHT22;1646;52.450;13.326;2022-08-01T11:57:48;23.30;99.90
3268;DHT22;1646;52.450;13.326;2022-08-01T12:02:47;23.50;99.90
3268;DHT22;1646;52.450;13.326;2022-08-01T12:07:57;23.90;99.90
3268;DHT22;1646;52.450;13.326;2022-08-01T12:12:59;24.20;99.90
3268;DHT22;1646;52.450;13.326;2022-08-01T12:17:58;24.40;99.90
3268;DHT22;1646;52.450;13.326;2022-08-01T12:23:03;24.60;99.90
3268;DHT22;1646;52.450;13.326;2022-08-01T12:28:03;24.60;99.90
3268;DHT22;1646;52.450;13.326;2022-08-01T12:33:03;24.70;99.90
3268;DHT22;1646;52.450;13.326;2022-08-01T12:38:04;24.80;99.90
3268;DHT22;1646;52.450;13.326;2022-08-01T12:43:04;25.00;99.90
3268;DHT22;1646;52.450;13.326;2022-08-01T12:48:08;25.30;99.90
3268;DHT22;1646;52.450;13.326;2022-08-01T12:53:10;25.70;99.90
3268;DHT22;1646;52.450;13.326;2022-08-01T12:58:15;26.00;99.90
3268;DHT22;1646;52.450;13.326;2022-08-01T13:03:15;26.30;99.90
3268;DHT22;1646;52.450;13.326;2022-08-01T13:08:16;26.30;99.90
3268;DHT22;1646;52.450;13.326;2022-08-01T13:13:17;25.90;99.90
3268;DHT22;1646;52.450;13.326;2022-08-01T13:18:26;25.60;99.90
3268;DHT22;1646;52.450;13.326;2022-08-01T13:23:26;25.40;99.90
3268;DHT22;1646;52.450;13.326;2022-08-01T13:28:46;25.10;99.90
3268;DHT22;1646;52.450;13.326;2022-08-01T13:34:02;24.90;99.90
3268;DHT22;1646;52.450;13.326;2022-08-01T13:39:01;25.10;99.90
3268;DHT22;1646;52.450;13.326;2022-08-01T13:44:14;25.30;99.90
3268;DHT22;1646;52.450;13.326;2022-08-01T13:49:12;25.50;99.90
3268;DHT22;1646;52.450;13.326;2022-08-01T13:54:13;25.40;99.90
3268;DHT22;1646;52.450;13.326;2022-08-01T13:59:11;25.60;99.90
3268;DHT22;1646;52.450;13.326;2022-08-01T14:04:09;25.90;99.90
3268;DHT22;1646;52.450;13.326;2022-08-01T14:09:07;25.80;99.90
3268;DHT22;1646;52.450;13.326;2022-08-01T14:14:20;26.10;99.90
3268;DHT22;1646;52.450;13.326;2022-08-01T14:19:18;26.30;99.90
3268;DHT22;1646;52.450;13.326;2022-08-01T14:24:34;26.30;99.90
3268;DHT22;1646;52.450;13.326;2022-08-01T14:29:36;26.60;99.90
3268;DHT22;1646;52.450;13.326;2022-08-01T14:34:54;26.60;99.90
3268;DHT22;1646;52.450;13.326;2022-08-01T14:39:52;26.50;99.90
3268;DHT22;1646;52.450;13.326;2022-08-01T14:44:51;26.70;99.90
3268;DHT22;1646;52.450;13.326;2022-08-01T14:49:50;26.80;99.90
3268;DHT22;1646;52.450;13.326;2022-08-01T14:54:48;27.30;99.90
3268;DHT22;1646;52.450;13.326;2022-08-01T14:59:46;27.50;99.90
3268;DHT22;1646;52.450;13.326;2022-08-01T15:04:46;27.50;99.90
3268;DHT22;1646;52.450;13.326;2022-08-01T15:09:45;27.50;99.90
3268;DHT22;1646;52.450;13.326;2022-08-01T15:14:43;27.40;99.90
3268;DHT22;1646;52.450;13.326;2022-08-01T15:19:49;27.00;99.90
3268;DHT22;1646;52.450;13.326;2022-08-01T15:24:48;26.40;99.90
3268;DHT22;1646;52.450;13.326;2022-08-01T15:29:53;26.10;99.90
3268;DHT22;1646;52.450;13.326;2022-08-01T15:34:52;25.80;99.90
3268;DHT22;1646;52.450;13.326;2022-08-01T15:39:50;25.70;99.90
3268;DHT22;1646;52.450;13.326;2022-08-01T15:44:52;25.90;99.90
3268;DHT22;1646;52.450;13.326;2022-08-01T15:49:50;26.10;99.90
3268;DHT22;1646;52.450;13.326;2022-08-01T15:54:50;26.40;99.90
3268;DHT22;1646;52.450;13.326;2022-08-01T15:59:48;26.80;99.90
3268;DHT22;1646;52.450;13.326;2022-08-01T16:04:46;27.10;99.90
3268;DHT22;1646;52.450;13.326;2022-08-01T16:09:44;27.20;99.90
3268;DHT22;1646;52.450;13.326;2022-08-01T16:14:43;27.30;99.90
3268;DHT22;1646;52.450;13.326;2022-08-01T16:19:41;27.20;99.90
3268;DHT22;1646;52.450;13.326;2022-08-01T16:24:40;27.00;99.90
3268;DHT22;1646;52.450;13.326;2022-08-01T16:29:38;26.80;99.90
3268;DHT22;1646;52.450;13.326;2022-08-01T16:34:37;26.40;99.90
3268;DHT22;1646;52.450;13.326;2022-08-01T16:39:42;26.20;99.90
3268;DHT22;1646;52.450;13.326;2022-08-01T16:44:43;26.20;99.90
3268;DHT22;1646;52.450;13.326;2022-08-01T16:49:42;26.20;99.90
3268;DHT22;1646;52.450;13.326;2022-08-01T16:54:40;26.40;99.90
3268;DHT22;1646;52.450;13.326;2022-08-01T16:59:39;26.40;99.90
3268;DHT22;1646;52.450;13.326;2022-08-01T17:04:37;26.40;99.90
3268;DHT22;1646;52.450;13.326;2022-08-01T17:09:37;26.20;99.90
3268;DHT22;1646;52.450;13.326;2022-08-01T17:14:39;26.10;99.90
3268;DHT22;1646;52.450;13.326;2022-08-01T17:19:39;26.00;99.90
3268;DHT22;1646;52.450;13.326;2022-08-01T17:24:39;25.90;99.90
3268;DHT22;1646;52.450;13.326;2022-08-01T17:29:37;25.80;99.90
3268;DHT22;1646;52.450;13.326;2022-08-01T17:34:40;25.60;99.90
3268;DHT22;1646;52.450;13.326;2022-08-01T17:39:40;25.40;99.90
3268;DHT22;1646;52.450;13.326;2022-08-01T17:44:39;25.30;99.90
3268;DHT22;1646;52.450;13.326;2022-08-01T17:49:37;25.20;99.90
3268;DHT22;1646;52.450;13.326;2022-08-01T17:54:52;25.20;99.90
3268;DHT22;1646;52.450;13.326;2022-08-01T17:59:50;25.10;99.90
3268;DHT22;1646;52.450;13.326;2022-08-01T18:04:48;25.00;99.90
3268;DHT22;1646;52.450;13.326;2022-08-01T18:09:48;24.90;99.90
3268;DHT22;1646;52.450;13.326;2022-08-01T18:14:47;24.90;99.90
3268;DHT22;1646;52.450;13.326;2022-08-01T18:19:46;24.90;99.90
3268;DHT22;1646;52.450;13.326;2022-08-01T18:24:44;24.90;99.90
3268;DHT22;1646;52.450;13.326;2022-08-01T18:29:42;24.90;99.90
3268;DHT22;1646;52.450;13.326;2022-08-01T18:34:45;24.80;99.90
3268;DHT22;1646;52.450;13.326;2022-08-01T18:39:43;24.80;99.90
3268;DHT22;1646;52.450;13.326;2022-08-01T18:44:42;24.80;99.90
3268;DHT22;1646;52.450;13.326;2022-08-01T18:49:40;24.70;99.90
3268;DHT22;1646;52.450;13.326;2022-08-01T18:54:39;24.60;99.90
3268;DHT22;1646;52.450;13.326;2022-08-01T18:59:38;24.50;99.90
3268;DHT22;1646;52.450;13.326;2022-08-01T19:04:37;24.40;99.90
3268;DHT22;1646;52.450;13.326;2022-08-01T19:09:36;24.40;99.90
3268;DHT22;1646;52.450;13.326;2022-08-01T19:14:35;24.30;99.90
3268;DHT22;1646;52.450;13.326;2022-08-01T19:19:33;24.30;99.90
3268;DHT22;1646;52.450;13.326;2022-08-01T19:24:32;24.30;99.90
3268;DHT22;1646;52.450;13.326;2022-08-01T19:29:32;24.20;99.90
3268;DHT22;1646;52.450;13.326;2022-08-01T19:34:34;24.10;99.90
3268;DHT22;1646;52.450;13.326;2022-08-01T19:39:33;24.00;99.90
3268;DHT22;1646;52.450;13.326;2022-08-01T19:44:31;23.90;99.90
3268;DHT22;1646;52.450;13.326;2022-08-01T19:49:29;23.90;99.90
3268;DHT22;1646;52.450;13.326;2022-08-01T19:54:32;23.90;99.90
3268;DHT22;1646;52.450;13.326;2022-08-01T19:59:33;23.90;99.90
3268;DHT22;1646;52.450;13.326;2022-08-01T20:04:32;23.70;99.90
3268;DHT22;1646;52.450;13.326;2022-08-01T20:09:32;23.60;99.90
3268;DHT22;1646;52.450;13.326;2022-08-01T20:14:31;23.50;99.90
3268;DHT22;1646;52.450;13.326;2022-08-01T20:19:29;23.50;99.90
3268;DHT22;1646;52.450;13.326;2022-08-01T20:24:28;23.50;99.90
3268;DHT22;1646;52.450;13.326;2022-08-01T20:29:30;23.50;99.90
3268;DHT22;1646;52.450;13.326;2022-08-01T20:34:28;23.50;99.90
3268;DHT22;1646;52.450;13.326;2022-08-01T20:39:30;23.40;99.90
3268;DHT22;1646;52.450;13.326;2022-08-01T20:44:32;23.40;99.90
3268;DHT22;1646;52.450;13.326;2022-08-01T20:49:31;23.40;99.90
3268;DHT22;1646;52.450;13.326;2022-08-01T20:54:30;23.40;99.90
3268;DHT22;1646;52.450;13.326;2022-08-01T20:59:31;23.50;99.90
3268;DHT22;1646;52.450;13.326;2022-08-01T21:04:56;23.50;99.90
3268;DHT22;1646;52.450;13.326;2022-08-01T21:10:03;23.50;99.90
3268;DHT22;1646;52.450;13.326;2022-08-01T21:15:03;23.50;99.90
3268;DHT22;1646;52.450;13.326;2022-08-01T21:20:04;23.50;99.90
3268;DHT22;1646;52.450;13.326;2022-08-01T21:25:06;23.40;99.90
3268;DHT22;1646;52.450;13.326;2022-08-01T21:30:08;23.40;99.90
3268;DHT22;1646;52.450;13.326;2022-08-01T21:35:08;23.30;99.90
3268;DHT22;1646;52.450;13.326;2022-08-01T21:40:12;23.20;99.90
3268;DHT22;1646;52.450;13.326;2022-08-01T21:45:12;23.10;99.90
3268;DHT22;1646;52.450;13.326;2022-08-01T21:50:11;23.00;99.90
3268;DHT22;1646;52.450;13.326;2022-08-01T21:55:16;22.80;99.90
3268;DHT22;1646;52.450;13.326;2022-08-01T22:00:19;22.60;99.90
3268;DHT22;1646;52.450;13.326;2022-08-01T22:05:25;22.60;99.90
3268;DHT22;1646;52.450;13.326;2022-08-01T22:10:44;22.60;99.90
3268;DHT22;1646;52.450;13.326;2022-08-01T22:15:43;22.70;99.90
3268;DHT22;1646;52.450;13.326;2022-08-01T22:20:42;22.60;99.90
3268;DHT22;1646;52.450;13.326;2022-08-01T22:25:44;22.40;99.90
3268;DHT22;1646;52.450;13.326;2022-08-01T22:30:47;22.30;99.90
3268;DHT22;1646;52.450;13.326;2022-08-01T22:35:48;22.30;99.90
3268;DHT22;1646;52.450;13.326;2022-08-01T22:40:49;22.20;99.90
3268;DHT22;1646;52.450;13.326;2022-08-01T22:45:57;22.30;99.90
3268;DHT22;1646;52.450;13.326;2022-08-01T22:51:01;22.20;99.90
3268;DHT22;1646;52.450;13.326;2022-08-01T22:56:05;22.30;99.90
3268;DHT22;1646;52.450;13.326;2022-08-01T23:01:09;22.20;99.90
3268;DHT22;1646;52.450;13.326;2022-08-01T23:06:20;22.30;99.90
3268;DHT22;1646;52.450;13.326;2022-08-01T23:11:19;22.20;99.90
3268;DHT22;1646;52.450;13.326;2022-08-01T23:16:19;22.10;99.90
3268;DHT22;1646;52.450;13.326;2022-08-01T23:21:18;22.00;99.90
3268;DHT22;1646;52.450;13.326;2022-08-01T23:26:17;22.00;99.90
3268;DHT22;1646;52.450;13.326;2022-08-01T23:31:17;22.00;99.90
3268;DHT22;1646;52.450;13.326;2022-08-01T23:36:37;22.00;99.90
3268;DHT22;1646;52.450;13.326;2022-08-01T23:41:35;21.90;99.90
3268;DHT22;1646;52.450;13.326;2022-08-01T23:46:55;21.80;99.90
3268;DHT22;1646;52.450;13.326;2022-08-01T23:51:53;21.70;99.90
3268;DHT22;1646;52.450;13.326;2022-08-01T23:56:51;21.50;99.90
